Kinnear, Wyoming
Current Conditions -  °F | °C
As of 11:53 PM on Thursday 27 Nov 2014 (Local Time) from KRIW Reporting Station
Clear Clear  
Wind Chill: 34°   Ceiling: Unl
Heat Index: 38°   Visibility: 10mi
Dew Point: 25°   Wind: 5mph
Humidity: 60%   Direction: 170°S
Pressure: 29.97"   Gusts: NA
Location:  43.15°N, 108.68°W
Report Text: KRIW 280653Z AUTO 17004KT 10SM CLR 03/M04 A2997 RMK AO2 SLP133 T00331039 401441011
Loading
Personal Weather Stations






























Interactive Weather Map New forecast layout! Learn more

10-Day Weather Forecast

Advertisements
Track Severe Weather on mobile